createdAt,value
2022-10-26T00:00:48.713Z,8.30
2022-10-26T00:01:48.864Z,5.20
2022-10-26T00:02:48.929Z,6.40
2022-10-26T00:03:48.635Z,5.80
2022-10-26T00:04:48.623Z,6.40
2022-10-26T00:05:48.616Z,5.00
2022-10-26T00:06:48.626Z,6.30
2022-10-26T00:07:48.612Z,8.20
2022-10-26T00:08:48.580Z,6.60
2022-10-26T00:09:48.567Z,4.40
2022-10-26T00:10:48.577Z,5.10
2022-10-26T00:11:48.568Z,5.50
2022-10-26T00:12:48.828Z,5.00
2022-10-26T00:13:48.524Z,5.70
2022-10-26T00:14:48.527Z,4.60
2022-10-26T00:15:48.546Z,4.70
2022-10-26T00:16:48.513Z,3.90
2022-10-26T00:17:48.825Z,6.20
2022-10-26T00:18:48.485Z,6.10
2022-10-26T00:19:48.457Z,4.40
2022-10-26T00:20:48.445Z,5.20
2022-10-26T00:21:48.456Z,4.50
2022-10-26T00:22:48.433Z,4.50
2022-10-26T00:23:48.427Z,3.30
2022-10-26T00:24:48.399Z,4.30
2022-10-26T00:25:48.414Z,7.00
2022-10-26T00:26:48.400Z,6.10
2022-10-26T00:27:48.603Z,5.00
2022-10-26T00:28:48.383Z,5.40
2022-10-26T00:29:48.347Z,4.90
2022-10-26T00:30:48.351Z,5.70
2022-10-26T00:31:48.329Z,5.20
2022-10-26T00:32:48.311Z,6.30
2022-10-26T00:33:48.304Z,3.70
2022-10-26T00:34:48.307Z,5.50
2022-10-26T00:35:48.282Z,6.00
2022-10-26T00:36:48.267Z,6.60
2022-10-26T00:37:48.609Z,4.80
2022-10-26T00:38:48.266Z,4.20
2022-10-26T00:39:48.229Z,7.90
2022-10-26T00:40:48.283Z,5.90
2022-10-26T00:41:48.233Z,6.30
2022-10-26T00:42:48.538Z,6.40
2022-10-26T00:43:48.186Z,7.60
2022-10-26T00:44:48.174Z,4.60
2022-10-26T00:45:48.162Z,8.10
2022-10-26T00:46:48.192Z,7.30
2022-10-26T00:47:48.139Z,6.20
2022-10-26T00:48:48.128Z,6.10
2022-10-26T00:49:48.118Z,6.90
2022-10-26T00:50:48.127Z,6.80
2022-10-26T00:51:48.104Z,5.30
2022-10-26T00:52:48.443Z,5.80
2022-10-26T00:53:48.076Z,6.60
2022-10-26T00:54:48.081Z,4.80
2022-10-26T00:55:48.048Z,7.50
2022-10-26T00:56:48.040Z,6.90
2022-10-26T00:57:48.051Z,6.20
2022-10-26T00:58:48.016Z,5.50
2022-10-26T00:59:48.028Z,6.80
2022-10-26T01:00:47.993Z,6.30
2022-10-26T01:01:48.017Z,6.80
2022-10-26T01:02:48.389Z,5.80
2022-10-26T01:03:48.022Z,9.30
2022-10-26T01:04:47.945Z,4.30
2022-10-26T01:05:47.945Z,5.90
2022-10-26T01:06:47.960Z,4.60
2022-10-26T01:07:48.171Z,5.50
2022-10-26T01:08:47.905Z,6.50
2022-10-26T01:09:47.928Z,6.20
2022-10-26T01:10:47.904Z,6.40
2022-10-26T01:11:47.897Z,6.00
2022-10-26T01:12:47.854Z,7.00
2022-10-26T01:13:47.847Z,4.90
2022-10-26T01:14:47.830Z,4.40
2022-10-26T01:15:47.823Z,5.50
2022-10-26T01:16:47.849Z,5.70
2022-10-26T01:17:48.191Z,6.50
2022-10-26T01:18:47.815Z,5.90
2022-10-26T01:19:47.782Z,5.30
2022-10-26T01:20:47.762Z,4.50
2022-10-26T01:21:47.754Z,4.40
2022-10-26T01:22:47.762Z,7.00
2022-10-26T01:23:47.737Z,6.60
2022-10-26T01:24:47.717Z,6.20
2022-10-26T01:25:47.730Z,3.80
2022-10-26T01:26:47.759Z,6.00
2022-10-26T01:27:47.969Z,4.40
2022-10-26T01:28:47.677Z,3.70
2022-10-26T01:29:47.684Z,5.80
2022-10-26T01:30:47.674Z,4.20
2022-10-26T01:31:47.640Z,8.30
2022-10-26T01:32:47.669Z,6.10
2022-10-26T01:33:47.615Z,5.60
2022-10-26T01:34:47.658Z,7.00
2022-10-26T01:35:47.617Z,6.90
2022-10-26T01:36:47.582Z,4.30
2022-10-26T01:37:48.104Z,4.80
2022-10-26T01:38:47.562Z,5.30
2022-10-26T01:39:47.547Z,3.90
2022-10-26T01:40:47.560Z,5.00
2022-10-26T01:41:47.539Z,5.20
2022-10-26T01:42:47.515Z,3.60
2022-10-26T01:43:47.508Z,4.90
2022-10-26T01:44:47.517Z,4.80
2022-10-26T01:45:47.544Z,5.30
2022-10-26T01:46:47.475Z,4.10
2022-10-26T01:47:47.710Z,6.30
2022-10-26T01:48:47.454Z,3.40
2022-10-26T01:49:47.434Z,4.50
2022-10-26T01:50:47.441Z,5.10
2022-10-26T01:51:47.410Z,4.40
2022-10-26T01:52:47.423Z,3.60
2022-10-26T01:53:47.388Z,5.30
2022-10-26T01:54:47.401Z,5.70
2022-10-26T01:55:47.370Z,5.70
2022-10-26T01:56:47.355Z,5.10
2022-10-26T01:57:47.630Z,7.40
2022-10-26T01:58:47.365Z,4.80
2022-10-26T01:59:47.321Z,5.30
2022-10-26T02:00:47.352Z,5.50
2022-10-26T02:01:47.355Z,6.30
2022-10-26T02:02:47.294Z,5.20
2022-10-26T02:03:47.338Z,7.00
2022-10-26T02:04:47.291Z,6.30
2022-10-26T02:05:47.268Z,5.70
2022-10-26T02:06:47.307Z,6.60
2022-10-26T02:07:47.596Z,3.90
2022-10-26T02:08:47.218Z,5.60
2022-10-26T02:09:47.217Z,6.30
2022-10-26T02:10:47.198Z,5.00
2022-10-26T02:11:47.206Z,6.90
2022-10-26T02:12:47.232Z,4.90
2022-10-26T02:13:47.188Z,5.40
2022-10-26T02:14:47.151Z,5.30
2022-10-26T02:15:47.141Z,5.80
2022-10-26T02:16:47.130Z,5.80
2022-10-26T02:17:47.489Z,5.60
2022-10-26T02:18:47.107Z,5.30
2022-10-26T02:19:47.093Z,6.30
2022-10-26T02:20:47.093Z,5.30
2022-10-26T02:21:47.178Z,6.30
2022-10-26T02:22:47.083Z,5.50
2022-10-26T02:23:47.046Z,6.30
2022-10-26T02:24:47.039Z,7.30
2022-10-26T02:25:47.024Z,6.90
2022-10-26T02:26:47.038Z,6.10
2022-10-26T02:27:47.458Z,4.90
2022-10-26T02:28:46.994Z,4.40
2022-10-26T02:29:46.979Z,4.60
2022-10-26T02:30:46.974Z,5.90
2022-10-26T02:31:46.981Z,8.90
2022-10-26T02:32:46.946Z,6.90
2022-10-26T02:33:46.937Z,4.40
2022-10-26T02:34:46.925Z,5.60
2022-10-26T02:35:46.939Z,6.20
2022-10-26T02:36:46.922Z,7.50
2022-10-26T02:37:47.187Z,6.70
2022-10-26T02:38:46.905Z,6.30
2022-10-26T02:39:46.894Z,5.20
2022-10-26T02:40:46.864Z,8.80
2022-10-26T02:41:46.850Z,6.60
2022-10-26T02:42:46.865Z,6.20
2022-10-26T02:43:46.829Z,6.50
2022-10-26T02:44:46.843Z,5.80
2022-10-26T02:45:46.800Z,9.50
2022-10-26T02:46:46.817Z,7.00
2022-10-26T02:47:47.150Z,5.60
2022-10-26T02:48:46.769Z,7.00
2022-10-26T02:49:46.755Z,4.50
2022-10-26T02:50:46.744Z,7.30
2022-10-26T02:52:47.023Z,7.30
2022-10-26T02:53:46.709Z,5.80
2022-10-26T02:54:46.718Z,6.20
2022-10-26T02:55:46.715Z,5.70
2022-10-26T02:56:46.704Z,4.80
2022-10-26T02:57:46.673Z,4.00
2022-10-26T02:58:46.657Z,4.90
2022-10-26T02:59:46.641Z,5.20
2022-10-26T03:00:46.656Z,4.60
2022-10-26T03:01:46.704Z,4.90
2022-10-26T03:02:48.581Z,5.30
2022-10-26T03:03:46.650Z,5.00
2022-10-26T03:04:46.587Z,6.20
2022-10-26T03:05:46.844Z,5.10
2022-10-26T03:06:46.571Z,5.50
2022-10-26T03:07:46.592Z,6.10
2022-10-26T03:08:46.545Z,4.80
2022-10-26T03:09:46.573Z,6.60
2022-10-26T03:10:46.551Z,5.60
2022-10-26T03:11:46.532Z,4.90
2022-10-26T03:12:46.951Z,5.50
2022-10-26T03:13:46.483Z,5.40
2022-10-26T03:14:46.481Z,6.10
2022-10-26T03:15:46.463Z,5.40
2022-10-26T03:16:46.496Z,4.40
2022-10-26T03:17:46.763Z,5.00
2022-10-26T03:18:46.430Z,5.20
2022-10-26T03:19:46.416Z,6.00
2022-10-26T03:20:46.409Z,3.50
2022-10-26T03:21:46.421Z,4.30
2022-10-26T03:22:46.383Z,4.30
2022-10-26T03:23:46.394Z,5.60
2022-10-26T03:24:46.370Z,5.10
2022-10-26T03:25:46.370Z,4.20
2022-10-26T03:26:46.359Z,8.50
2022-10-26T03:27:46.686Z,5.70
2022-10-26T03:28:46.339Z,4.90
2022-10-26T03:29:46.307Z,6.10
2022-10-26T03:30:46.295Z,5.90
2022-10-26T03:31:46.285Z,5.10
2022-10-26T03:32:46.304Z,5.80
2022-10-26T03:33:46.260Z,5.60
2022-10-26T03:34:46.277Z,6.70
2022-10-26T03:35:46.261Z,5.10
2022-10-26T03:36:46.232Z,5.30
2022-10-26T03:37:46.493Z,5.00
2022-10-26T03:38:46.228Z,8.30
2022-10-26T03:39:46.192Z,5.40
2022-10-26T03:40:46.182Z,5.50
2022-10-26T03:41:46.254Z,5.20
2022-10-26T03:42:46.222Z,5.20
2022-10-26T03:43:46.170Z,4.20
2022-10-26T03:44:46.142Z,4.60
2022-10-26T03:45:46.175Z,5.30
2022-10-26T03:46:46.115Z,4.50
2022-10-26T03:47:46.100Z,4.30
2022-10-26T03:48:46.120Z,5.40
2022-10-26T03:49:46.088Z,4.80
2022-10-26T03:50:46.072Z,5.30
2022-10-26T03:51:46.057Z,4.30
2022-10-26T03:52:46.190Z,5.60
2022-10-26T03:53:46.063Z,4.50
2022-10-26T03:54:46.028Z,5.90
2022-10-26T03:55:46.086Z,5.10
2022-10-26T03:56:46.005Z,5.30
2022-10-26T03:57:45.995Z,4.40
2022-10-26T03:58:46.013Z,5.80
2022-10-26T03:59:46.029Z,5.00
2022-10-26T04:00:45.982Z,7.50
2022-10-26T04:01:46.033Z,6.70
2022-10-26T04:02:45.996Z,5.90
2022-10-26T04:03:45.996Z,5.20
2022-10-26T04:04:45.911Z,7.30
2022-10-26T04:05:45.921Z,7.40
2022-10-26T04:07:45.969Z,5.90
2022-10-26T04:08:45.871Z,6.70
2022-10-26T04:09:45.879Z,5.50
2022-10-26T04:10:45.858Z,4.90
2022-10-26T04:11:45.856Z,6.40
2022-10-26T04:12:45.822Z,5.60
2022-10-26T04:13:45.811Z,5.90
2022-10-26T04:14:45.817Z,5.80
2022-10-26T04:15:45.788Z,6.20
2022-10-26T04:16:45.805Z,5.70
2022-10-26T04:17:45.913Z,4.50
2022-10-26T04:18:45.780Z,7.40
2022-10-26T04:19:45.741Z,4.50
2022-10-26T04:20:45.736Z,4.90
2022-10-26T04:21:45.722Z,4.70
2022-10-26T04:22:45.711Z,3.50
2022-10-26T04:23:45.725Z,7.70
2022-10-26T04:24:45.688Z,5.50
2022-10-26T04:25:45.681Z,4.80
2022-10-26T04:26:45.692Z,4.70
2022-10-26T04:27:45.661Z,7.20
2022-10-26T04:28:45.645Z,4.50
2022-10-26T04:29:45.629Z,7.80
2022-10-26T04:30:45.693Z,8.10
2022-10-26T04:31:45.641Z,6.50
2022-10-26T04:32:45.789Z,6.90
2022-10-26T04:33:45.589Z,5.60
2022-10-26T04:34:45.575Z,4.80
2022-10-26T04:35:45.565Z,6.80
2022-10-26T04:36:45.576Z,6.10
2022-10-26T04:37:45.564Z,6.20
2022-10-26T04:38:45.531Z,6.20
2022-10-26T04:39:45.517Z,5.70
2022-10-26T04:40:45.533Z,7.20
2022-10-26T04:41:45.530Z,7.10
2022-10-26T04:42:45.506Z,6.10
2022-10-26T04:43:45.474Z,6.80
2022-10-26T04:44:45.462Z,5.90
2022-10-26T04:45:45.454Z,5.20
2022-10-26T04:46:45.463Z,7.30
2022-10-26T04:47:45.449Z,7.50
2022-10-26T04:48:45.691Z,7.90
2022-10-26T04:49:45.416Z,5.40
2022-10-26T04:50:45.396Z,6.30
2022-10-26T04:51:45.382Z,7.40
2022-10-26T04:52:45.396Z,8.30
2022-10-26T04:53:45.388Z,5.70
2022-10-26T04:54:45.350Z,7.30
2022-10-26T04:55:45.348Z,5.60
2022-10-26T04:57:45.339Z,7.90
2022-10-26T04:58:45.304Z,6.40
2022-10-26T04:59:45.294Z,6.30
2022-10-26T05:00:45.304Z,5.50
2022-10-26T05:01:45.480Z,8.40
2022-10-26T05:02:45.276Z,6.50
2022-10-26T05:03:45.249Z,9.00
2022-10-26T05:04:45.238Z,5.20
2022-10-26T05:05:45.532Z,5.00
2022-10-26T05:06:45.219Z,8.10
2022-10-26T05:07:45.208Z,5.90
2022-10-26T05:08:45.196Z,5.20
2022-10-26T05:09:45.206Z,5.70
2022-10-26T05:10:45.175Z,8.00
2022-10-26T05:11:45.164Z,7.00
2022-10-26T05:12:45.170Z,4.80
2022-10-26T05:13:45.138Z,6.00
2022-10-26T05:14:45.129Z,4.80
2022-10-26T05:15:45.122Z,8.70
2022-10-26T05:16:45.127Z,7.70
2022-10-26T05:17:45.096Z,5.70
2022-10-26T05:18:45.134Z,6.50
2022-10-26T05:19:45.221Z,5.50
2022-10-26T05:20:45.059Z,8.10
2022-10-26T05:22:45.066Z,5.70
2022-10-26T05:23:45.021Z,5.40
2022-10-26T05:24:45.013Z,5.80
2022-10-26T05:25:45.029Z,7.00
2022-10-26T05:26:45.014Z,8.70
2022-10-26T05:27:44.978Z,5.70
2022-10-26T05:28:44.967Z,6.40
2022-10-26T05:29:44.977Z,5.40
2022-10-26T05:30:44.966Z,6.10
2022-10-26T05:31:44.933Z,6.70
2022-10-26T05:32:44.961Z,5.90
2022-10-26T05:33:44.933Z,9.20
2022-10-26T05:34:44.947Z,10.20
2022-10-26T05:35:44.913Z,9.30
2022-10-26T05:36:44.882Z,9.30
2022-10-26T05:37:44.866Z,7.40
2022-10-26T05:38:44.860Z,8.10
2022-10-26T05:39:45.052Z,8.00
2022-10-26T05:40:44.830Z,6.70
2022-10-26T05:41:44.848Z,8.40
2022-10-26T05:42:44.813Z,9.20
2022-10-26T05:43:44.819Z,9.60
2022-10-26T05:44:44.785Z,8.00
2022-10-26T05:45:44.774Z,8.00
2022-10-26T05:46:44.834Z,7.30
2022-10-26T05:47:44.779Z,7.10
2022-10-26T05:48:44.745Z,10.60
2022-10-26T05:49:44.748Z,8.80
2022-10-26T05:50:44.736Z,7.30
2022-10-26T05:51:44.733Z,8.30
2022-10-26T05:52:44.695Z,8.20
2022-10-26T05:53:44.710Z,8.70
2022-10-26T05:54:44.675Z,8.70
2022-10-26T05:55:44.684Z,9.20
2022-10-26T05:56:44.650Z,8.80
2022-10-26T05:57:44.654Z,8.40
2022-10-26T05:58:44.626Z,9.60
2022-10-26T05:59:44.615Z,9.70
2022-10-26T06:00:44.604Z,9.20
2022-10-26T06:01:44.823Z,8.40
2022-10-26T06:02:44.678Z,8.70
2022-10-26T06:03:44.571Z,10.70
2022-10-26T06:04:44.566Z,8.50
2022-10-26T06:05:44.552Z,9.70
2022-10-26T06:06:44.578Z,13.70
2022-10-26T06:07:44.528Z,12.00
2022-10-26T06:08:44.516Z,10.40
2022-10-26T06:09:44.525Z,10.10
2022-10-26T06:10:44.499Z,9.50
2022-10-26T06:11:44.544Z,10.10
2022-10-26T06:12:44.490Z,12.50
2022-10-26T06:13:44.465Z,14.20
2022-10-26T06:14:44.469Z,11.70
2022-10-26T06:15:44.433Z,11.50
2022-10-26T06:16:44.422Z,10.90
2022-10-26T06:17:44.411Z,11.10
2022-10-26T06:18:44.398Z,11.00
2022-10-26T06:19:44.411Z,13.20
2022-10-26T06:20:44.378Z,11.10
2022-10-26T06:21:44.369Z,11.60
2022-10-26T06:22:44.370Z,12.80
2022-10-26T06:23:44.415Z,12.30
2022-10-26T06:24:44.336Z,12.00
2022-10-26T06:25:44.322Z,10.60
2022-10-26T06:26:44.337Z,12.40
2022-10-26T06:27:44.332Z,11.60
2022-10-26T06:28:46.240Z,12.50
2022-10-26T06:29:44.302Z,16.30
2022-10-26T06:30:44.285Z,10.90
2022-10-26T06:31:44.284Z,10.80
2022-10-26T06:32:44.246Z,10.90
2022-10-26T06:33:44.245Z,10.60
2022-10-26T06:34:44.244Z,11.50
2022-10-26T06:35:44.212Z,11.30
2022-10-26T06:36:44.279Z,11.80
2022-10-26T06:37:44.185Z,11.90
2022-10-26T06:38:44.217Z,14.20
2022-10-26T06:39:44.162Z,10.90
2022-10-26T06:40:44.149Z,12.60
2022-10-26T06:41:44.163Z,9.50
2022-10-26T06:42:44.131Z,12.70
2022-10-26T06:43:44.118Z,12.00
2022-10-26T06:44:44.105Z,9.90
2022-10-26T06:45:44.115Z,13.50
2022-10-26T06:46:44.082Z,13.10
2022-10-26T06:47:44.076Z,10.40
2022-10-26T06:48:44.061Z,13.00
2022-10-26T06:49:44.074Z,10.60
2022-10-26T06:50:44.035Z,10.70
2022-10-26T06:51:44.029Z,12.10
2022-10-26T06:52:44.013Z,9.40
2022-10-26T06:53:44.031Z,11.60
2022-10-26T06:54:44.016Z,10.20
2022-10-26T06:55:43.988Z,10.30
2022-10-26T06:56:43.992Z,11.30
2022-10-26T06:57:43.962Z,9.10
2022-10-26T06:58:43.946Z,13.10
2022-10-26T06:59:43.959Z,14.50
2022-10-26T07:00:43.934Z,11.40
2022-10-26T07:01:44.047Z,9.20
2022-10-26T07:02:43.992Z,12.10
2022-10-26T07:03:43.892Z,12.90
2022-10-26T07:04:43.877Z,10.30
2022-10-26T07:05:43.890Z,11.20
2022-10-26T07:06:43.861Z,11.80
2022-10-26T07:07:43.873Z,9.50
2022-10-26T07:08:43.834Z,11.20
2022-10-26T07:09:43.855Z,11.70
2022-10-26T07:10:43.841Z,9.80
2022-10-26T07:11:43.824Z,16.20
2022-10-26T07:12:43.811Z,9.10
2022-10-26T07:13:43.829Z,13.40
2022-10-26T07:14:43.764Z,11.90
2022-10-26T07:15:43.778Z,9.90
2022-10-26T07:16:43.742Z,11.90
2022-10-26T07:17:43.760Z,11.20
2022-10-26T07:18:43.719Z,13.20
2022-10-26T07:19:43.710Z,9.60
2022-10-26T07:20:43.698Z,11.10
2022-10-26T07:21:43.687Z,11.70
2022-10-26T07:22:43.707Z,13.30
2022-10-26T07:23:43.728Z,8.50
2022-10-26T07:24:43.681Z,12.90
2022-10-26T07:25:43.646Z,12.50
2022-10-26T07:26:43.655Z,11.30
2022-10-26T07:27:43.646Z,9.80
2022-10-26T07:28:43.607Z,11.60
2022-10-26T07:29:43.596Z,8.90
2022-10-26T07:30:43.585Z,10.90
2022-10-26T07:31:43.765Z,10.40
2022-10-26T07:32:43.589Z,11.30
2022-10-26T07:33:43.551Z,11.40
2022-10-26T07:34:43.539Z,11.60
2022-10-26T07:35:43.528Z,12.00
2022-10-26T07:36:43.517Z,12.00
2022-10-26T07:37:43.532Z,11.40
2022-10-26T07:38:43.496Z,11.30
2022-10-26T07:39:43.482Z,11.90
2022-10-26T07:40:43.479Z,12.30
2022-10-26T07:41:43.461Z,11.20
2022-10-26T07:42:46.922Z,13.10
2022-10-26T07:43:43.461Z,12.30
2022-10-26T07:44:43.426Z,9.50
2022-10-26T07:45:43.440Z,13.50
2022-10-26T07:46:43.403Z,12.10
2022-10-26T07:47:43.434Z,12.60
2022-10-26T07:49:43.393Z,12.30
2022-10-26T07:50:43.362Z,14.10
2022-10-26T07:51:43.348Z,12.20
2022-10-26T07:52:43.341Z,14.50
2022-10-26T07:53:43.325Z,14.40
2022-10-26T07:54:43.338Z,12.70
2022-10-26T07:55:43.310Z,11.60
2022-10-26T07:56:43.290Z,11.20
2022-10-26T07:57:43.282Z,10.90
2022-10-26T07:58:43.285Z,11.30
2022-10-26T07:59:43.280Z,11.50
2022-10-26T08:00:43.306Z,10.50
2022-10-26T08:01:43.383Z,13.60
2022-10-26T08:02:43.219Z,9.30
2022-10-26T08:03:43.212Z,12.50
2022-10-26T08:04:43.197Z,12.70
2022-10-26T08:05:43.215Z,13.00
2022-10-26T08:06:43.176Z,11.30
2022-10-26T08:07:43.164Z,12.10
2022-10-26T08:08:46.396Z,10.40
2022-10-26T08:09:43.169Z,12.50
2022-10-26T08:10:43.155Z,11.10
2022-10-26T08:11:43.121Z,10.80
2022-10-26T08:12:43.109Z,12.20
2022-10-26T08:13:43.148Z,12.90
2022-10-26T08:14:43.130Z,11.80
2022-10-26T08:15:43.074Z,10.20
2022-10-26T08:16:43.070Z,10.80
2022-10-26T08:17:43.077Z,12.90
2022-10-26T08:18:43.041Z,10.20
2022-10-26T08:19:43.041Z,13.10
2022-10-26T08:20:43.021Z,11.50
2022-10-26T08:21:43.015Z,13.50
2022-10-26T08:22:43.031Z,11.10
2022-10-26T08:23:42.985Z,11.00
2022-10-26T08:24:42.972Z,9.70
2022-10-26T08:25:42.965Z,9.50
2022-10-26T08:26:42.949Z,10.10
2022-10-26T08:27:42.963Z,11.30
2022-10-26T08:28:42.932Z,12.30
2022-10-26T08:29:42.918Z,11.20
2022-10-26T08:30:42.930Z,11.40
2022-10-26T08:31:42.924Z,10.80
2022-10-26T08:32:42.908Z,9.20
2022-10-26T08:33:44.987Z,10.30
2022-10-26T08:34:42.862Z,8.00
2022-10-26T08:35:42.850Z,10.50
2022-10-26T08:36:42.859Z,7.10
2022-10-26T08:37:42.829Z,10.20
2022-10-26T08:38:42.837Z,8.90
2022-10-26T08:39:42.807Z,8.80
2022-10-26T08:40:42.793Z,11.20
2022-10-26T08:41:42.809Z,8.20
2022-10-26T08:42:42.773Z,9.10
2022-10-26T08:43:42.761Z,10.50
2022-10-26T08:44:42.748Z,8.50
2022-10-26T08:45:42.764Z,8.90
2022-10-26T08:46:42.766Z,9.10
2022-10-26T08:47:42.716Z,8.10
2022-10-26T08:48:42.702Z,8.90
2022-10-26T08:49:42.692Z,8.50
2022-10-26T08:50:42.950Z,12.20
2022-10-26T08:51:42.670Z,7.10
2022-10-26T08:52:42.681Z,7.80
2022-10-26T08:53:42.670Z,6.90
2022-10-26T08:54:42.633Z,9.70
2022-10-26T08:56:44.857Z,9.00
2022-10-26T08:57:42.603Z,7.70
2022-10-26T08:58:42.587Z,8.60
2022-10-26T08:59:42.604Z,7.30
2022-10-26T09:00:42.588Z,11.80
2022-10-26T09:01:42.743Z,8.90
2022-10-26T09:02:42.579Z,7.40
2022-10-26T09:03:42.533Z,9.20
2022-10-26T09:04:42.520Z,10.50
2022-10-26T09:05:42.513Z,8.40
2022-10-26T09:06:42.499Z,7.90
2022-10-26T09:07:42.518Z,9.20
2022-10-26T09:08:42.474Z,8.10
2022-10-26T09:09:42.467Z,9.00
2022-10-26T09:10:42.449Z,8.60
2022-10-26T09:11:42.444Z,11.60
2022-10-26T09:12:42.456Z,9.70
2022-10-26T09:13:42.421Z,9.40
2022-10-26T09:14:42.408Z,7.70
2022-10-26T09:15:42.399Z,9.10
2022-10-26T09:16:42.382Z,9.50
2022-10-26T09:17:42.395Z,8.80
2022-10-26T09:18:42.437Z,8.40
2022-10-26T09:19:42.354Z,9.70
2022-10-26T09:20:42.343Z,9.70
2022-10-26T09:21:42.331Z,10.20
2022-10-26T09:22:42.339Z,9.10
2022-10-26T09:23:42.340Z,7.50
2022-10-26T09:24:42.292Z,8.60
2022-10-26T09:25:42.305Z,11.40
2022-10-26T09:26:42.289Z,8.30
2022-10-26T09:27:42.303Z,7.60
2022-10-26T09:28:42.247Z,8.30
2022-10-26T09:29:42.236Z,8.30
2022-10-26T09:30:42.252Z,7.00
2022-10-26T09:31:43.414Z,7.90
2022-10-26T09:32:42.208Z,8.10
2022-10-26T09:33:42.192Z,7.40
2022-10-26T09:34:42.193Z,7.50
2022-10-26T09:35:42.171Z,7.60
2022-10-26T09:36:42.184Z,4.90
2022-10-26T09:37:42.157Z,6.20
2022-10-26T09:38:42.133Z,5.80
2022-10-26T09:39:42.123Z,8.10
2022-10-26T09:40:42.110Z,6.40
2022-10-26T09:41:42.103Z,6.60
2022-10-26T09:42:42.113Z,5.80
2022-10-26T09:43:42.129Z,7.70
2022-10-26T09:44:42.065Z,4.90
2022-10-26T09:45:42.057Z,6.00
2022-10-26T09:46:42.070Z,6.60
2022-10-26T09:47:42.069Z,6.70
2022-10-26T09:48:42.020Z,5.60
2022-10-26T09:49:42.012Z,8.60
2022-10-26T09:50:42.017Z,6.40
2022-10-26T09:51:41.990Z,6.90
2022-10-26T09:52:41.998Z,9.10
2022-10-26T09:53:41.980Z,6.40
2022-10-26T09:54:41.956Z,6.60
2022-10-26T09:55:41.981Z,5.40
2022-10-26T09:56:41.932Z,4.90
2022-10-26T09:57:41.982Z,5.20
2022-10-26T09:58:41.909Z,7.50
2022-10-26T09:59:41.916Z,4.30
2022-10-26T10:00:41.909Z,6.00
2022-10-26T10:01:42.662Z,4.60
2022-10-26T10:02:41.912Z,5.40
2022-10-26T10:03:41.855Z,8.60
2022-10-26T10:04:41.844Z,4.50
2022-10-26T10:05:57.203Z,5.70
2022-10-26T10:06:42.832Z,4.30
2022-10-26T10:07:41.809Z,7.90
2022-10-26T10:08:41.797Z,7.80
2022-10-26T10:09:41.785Z,6.40
2022-10-26T10:10:41.794Z,3.80
2022-10-26T10:11:41.766Z,4.90
2022-10-26T10:12:41.748Z,6.60
2022-10-26T10:13:41.740Z,7.30
2022-10-26T10:14:41.728Z,3.30
2022-10-26T10:15:41.738Z,2.80
2022-10-26T10:16:41.724Z,3.60
2022-10-26T10:17:41.714Z,6.20
2022-10-26T10:18:41.690Z,7.90
2022-10-26T10:19:41.672Z,4.00
2022-10-26T10:20:41.659Z,5.40
2022-10-26T10:21:41.670Z,3.90
2022-10-26T10:22:41.658Z,4.30
2022-10-26T10:23:41.631Z,3.30
2022-10-26T10:24:41.617Z,3.50
2022-10-26T10:25:41.632Z,5.20
2022-10-26T10:26:41.591Z,5.00
2022-10-26T10:27:41.581Z,3.10
2022-10-26T10:28:41.569Z,3.10
2022-10-26T10:29:41.555Z,5.80
2022-10-26T10:30:41.544Z,4.60
2022-10-26T10:31:41.588Z,4.70
2022-10-26T10:32:41.567Z,4.20
2022-10-26T10:33:41.508Z,6.40
2022-10-26T10:34:41.522Z,4.20
2022-10-26T10:35:41.488Z,3.00
2022-10-26T10:36:41.476Z,4.80
2022-10-26T10:37:41.470Z,4.10
2022-10-26T10:38:41.488Z,4.70
2022-10-26T10:39:41.465Z,2.70
2022-10-26T10:40:41.434Z,4.50
2022-10-26T10:41:41.418Z,4.00
2022-10-26T10:42:41.441Z,3.70
2022-10-26T10:43:41.403Z,4.30
2022-10-26T10:44:41.412Z,4.40
2022-10-26T10:45:41.375Z,5.20
2022-10-26T10:46:41.365Z,3.70
2022-10-26T10:48:41.340Z,2.10
2022-10-26T10:49:41.328Z,4.20
2022-10-26T10:50:41.321Z,5.20
2022-10-26T10:51:41.346Z,5.20
2022-10-26T10:52:41.295Z,3.30
2022-10-26T10:53:41.288Z,2.80
2022-10-26T10:54:41.301Z,3.60
2022-10-26T10:55:41.349Z,3.70
2022-10-26T10:56:41.252Z,4.90
2022-10-26T10:57:41.259Z,3.60
2022-10-26T10:58:41.228Z,4.40
2022-10-26T10:59:41.222Z,4.10
2022-10-26T11:00:41.205Z,3.60
2022-10-26T11:01:41.300Z,3.50
2022-10-26T11:02:41.253Z,5.70
2022-10-26T11:03:41.170Z,3.40
2022-10-26T11:04:41.160Z,4.00
2022-10-26T11:05:41.149Z,5.30
2022-10-26T11:06:41.139Z,3.30
2022-10-26T11:07:41.154Z,6.40
2022-10-26T11:08:41.120Z,3.50
2022-10-26T11:09:41.159Z,4.40
2022-10-26T11:10:41.127Z,5.40
2022-10-26T11:11:44.665Z,4.50
2022-10-26T11:12:41.094Z,3.60
2022-10-26T11:13:41.056Z,3.40
2022-10-26T11:14:41.914Z,4.00
2022-10-26T11:15:41.035Z,3.10
2022-10-26T11:16:41.047Z,4.70
2022-10-26T11:17:41.010Z,2.70
2022-10-26T11:18:41.034Z,3.60
2022-10-26T11:19:40.988Z,4.00
2022-10-26T11:20:40.979Z,3.30
2022-10-26T11:21:40.993Z,2.90
2022-10-26T11:22:40.970Z,4.20
2022-10-26T11:23:40.943Z,3.80
2022-10-26T11:24:40.939Z,3.40
2022-10-26T11:25:40.921Z,3.10
2022-10-26T11:26:43.673Z,3.40
2022-10-26T11:27:40.898Z,2.40
2022-10-26T11:28:40.892Z,3.40
2022-10-26T11:29:41.673Z,3.30
2022-10-26T11:30:40.866Z,4.20
2022-10-26T11:31:41.143Z,3.80
2022-10-26T11:32:40.843Z,3.70
2022-10-26T11:33:40.831Z,2.40
2022-10-26T11:34:40.821Z,4.90
2022-10-26T11:35:40.807Z,5.70
2022-10-26T11:36:40.821Z,3.80
2022-10-26T11:38:46.728Z,2.20
2022-10-26T11:39:41.760Z,5.30
2022-10-26T11:40:40.752Z,4.10
2022-10-26T11:41:40.770Z,5.40
2022-10-26T11:42:40.749Z,3.20
2022-10-26T11:43:40.718Z,2.70
2022-10-26T11:44:40.734Z,3.90
2022-10-26T11:45:40.724Z,4.30
2022-10-26T11:46:40.683Z,5.30
2022-10-26T11:47:40.702Z,2.60
2022-10-26T11:48:40.663Z,4.30
2022-10-26T11:49:40.677Z,4.60
2022-10-26T11:50:40.681Z,2.70
2022-10-26T11:51:40.636Z,2.90
2022-10-26T11:52:40.645Z,4.20
2022-10-26T11:53:40.626Z,3.90
2022-10-26T11:54:40.615Z,3.80
2022-10-26T11:55:40.587Z,3.10
2022-10-26T11:56:40.597Z,5.50
2022-10-26T11:57:40.557Z,4.20
2022-10-26T11:58:40.578Z,4.90
2022-10-26T11:59:40.538Z,3.00
2022-10-26T12:00:40.527Z,3.30
2022-10-26T12:01:40.587Z,4.00
2022-10-26T12:02:40.525Z,4.10
2022-10-26T12:03:40.520Z,3.30
2022-10-26T12:04:40.515Z,3.40
2022-10-26T12:05:40.477Z,4.50
2022-10-26T12:06:40.460Z,4.60
2022-10-26T12:07:40.524Z,4.00
2022-10-26T12:08:40.435Z,5.10
2022-10-26T12:09:40.423Z,4.30
2022-10-26T12:10:40.418Z,3.80
2022-10-26T12:11:40.402Z,4.00
2022-10-26T12:12:40.393Z,2.30
2022-10-26T12:13:40.403Z,3.20
2022-10-26T12:14:40.387Z,3.30
2022-10-26T12:16:01.575Z,2.40
2022-10-26T12:16:41.347Z,3.20
2022-10-26T12:17:40.333Z,2.60
2022-10-26T12:18:55.092Z,3.30
2022-10-26T12:19:41.310Z,4.70
2022-10-26T12:20:40.306Z,1.90
2022-10-26T12:21:40.317Z,4.60
2022-10-26T12:22:40.281Z,2.20
2022-10-26T12:23:51.213Z,4.50
2022-10-26T12:24:41.254Z,5.10
2022-10-26T12:25:40.292Z,3.00
2022-10-26T12:26:40.234Z,2.50
2022-10-26T12:27:40.337Z,3.40
2022-10-26T12:28:40.215Z,2.60
2022-10-26T12:29:40.200Z,2.60
2022-10-26T12:30:40.205Z,3.40
2022-10-26T12:31:40.210Z,3.50
2022-10-26T12:32:42.968Z,2.20
2022-10-26T12:33:40.153Z,3.60
2022-10-26T12:34:40.142Z,5.10
2022-10-26T12:35:40.133Z,2.60
2022-10-26T12:36:40.125Z,2.80
2022-10-26T12:37:40.367Z,2.60
2022-10-26T12:38:40.098Z,3.30
2022-10-26T12:39:40.094Z,3.30
2022-10-26T12:40:40.101Z,2.50
2022-10-26T12:41:40.063Z,2.70
2022-10-26T12:42:40.057Z,5.30
2022-10-26T12:43:40.130Z,2.70
2022-10-26T12:44:40.031Z,3.00
2022-10-26T12:45:40.034Z,2.70
2022-10-26T12:46:40.051Z,4.70
2022-10-26T12:47:40.007Z,3.40
2022-10-26T12:48:40.072Z,4.30
2022-10-26T12:49:39.973Z,2.50
2022-10-26T12:50:39.965Z,2.20
2022-10-26T12:51:40.160Z,4.50
2022-10-26T12:52:39.949Z,5.00
2022-10-26T12:53:41.944Z,3.30
2022-10-26T12:54:40.922Z,5.10
2022-10-26T12:55:39.904Z,3.20
2022-10-26T12:56:39.918Z,5.30
2022-10-26T12:57:39.887Z,4.70
2022-10-26T12:58:39.872Z,2.70
2022-10-26T12:59:39.883Z,5.00
2022-10-26T13:00:39.874Z,7.30
2022-10-26T13:01:39.935Z,3.60
2022-10-26T13:02:39.843Z,2.40
2022-10-26T13:03:39.813Z,3.80
2022-10-26T13:04:39.804Z,4.00
2022-10-26T13:05:39.827Z,3.20
2022-10-26T13:06:39.809Z,4.20
2022-10-26T13:07:39.793Z,3.40
2022-10-26T13:08:39.763Z,3.70
2022-10-26T13:09:39.749Z,2.60
2022-10-26T13:10:39.764Z,4.20
2022-10-26T13:11:39.723Z,2.60
2022-10-26T13:12:39.712Z,3.70
2022-10-26T13:13:39.724Z,4.10
2022-10-26T13:14:39.691Z,5.10
2022-10-26T13:15:39.681Z,4.30
2022-10-26T13:16:39.667Z,6.20
2022-10-26T13:17:39.656Z,4.40
2022-10-26T13:18:39.683Z,6.20
2022-10-26T13:19:39.653Z,4.00
2022-10-26T13:20:39.623Z,5.50
2022-10-26T13:21:39.609Z,4.90